createdAt,value
2016-02-09T00:00:30.567Z,8.89
2016-02-09T00:01:30.553Z,8.91
2016-02-09T00:02:30.510Z,8.92
2016-02-09T00:03:30.420Z,8.92
2016-02-09T00:04:30.453Z,8.92
2016-02-09T00:05:30.300Z,8.89
2016-02-09T00:06:30.287Z,8.89
2016-02-09T00:07:30.196Z,8.85
2016-02-09T00:08:30.105Z,8.82
2016-02-09T00:09:30.140Z,8.78
2016-02-09T00:10:30.001Z,8.76
2016-02-09T00:11:29.973Z,8.78
2016-02-09T00:12:29.913Z,8.78
2016-02-09T00:13:29.791Z,8.78
2016-02-09T00:14:29.808Z,8.74
2016-02-09T00:15:29.702Z,8.63
2016-02-09T00:16:29.767Z,8.74
2016-02-09T00:17:29.567Z,8.78
2016-02-09T00:18:29.523Z,8.71
2016-02-09T00:19:29.479Z,8.67
2016-02-09T00:20:29.420Z,8.7
2016-02-09T00:21:29.376Z,8.69
2016-02-09T00:22:29.940Z,8.64
2016-02-09T00:23:29.264Z,8.64
2016-02-09T00:24:29.220Z,8.63
2016-02-09T00:25:29.160Z,8.63
2016-02-09T00:26:29.115Z,8.67
2016-02-09T00:27:29.121Z,8.69
2016-02-09T00:28:29.093Z,8.63
2016-02-09T00:29:29.001Z,8.73
2016-02-09T00:30:28.926Z,8.66
2016-02-09T00:31:28.867Z,8.66
2016-02-09T00:32:28.822Z,8.74
2016-02-09T00:33:28.715Z,8.78
2016-02-09T00:34:28.655Z,8.71
2016-02-09T00:35:28.612Z,8.79
2016-02-09T00:36:28.645Z,8.78
2016-02-09T00:37:28.476Z,8.78
2016-02-09T00:38:28.463Z,8.79
2016-02-09T00:39:28.372Z,8.82
2016-02-09T00:40:28.312Z,8.78
2016-02-09T00:41:28.302Z,8.84
2016-02-09T00:42:28.211Z,8.82
2016-02-09T00:43:28.214Z,8.76
2016-02-09T00:44:28.200Z,8.76
2016-02-09T00:45:28.173Z,8.66
2016-02-09T00:46:28.004Z,8.69
2016-02-09T00:47:27.944Z,8.79
2016-02-09T00:48:27.885Z,8.78
2016-02-09T00:49:27.873Z,8.73
2016-02-09T00:50:27.813Z,8.79
2016-02-09T00:51:27.784Z,8.73
2016-02-09T00:52:27.700Z,8.7
2016-02-09T00:53:27.639Z,8.76
2016-02-09T00:54:27.597Z,8.61
2016-02-09T00:55:27.614Z,8.66
2016-02-09T00:56:27.477Z,8.78
2016-02-09T00:57:27.417Z,8.78
2016-02-09T00:58:27.388Z,8.78
2016-02-09T00:59:27.360Z,8.81
2016-02-09T01:00:27.252Z,8.78
2016-02-09T01:01:27.224Z,8.84
2016-02-09T01:02:27.226Z,8.81
2016-02-09T01:03:27.105Z,8.88
2016-02-09T01:04:27.203Z,8.79
2016-02-09T01:05:26.955Z,8.79
2016-02-09T01:06:27.019Z,8.81
2016-02-09T01:07:26.867Z,8.84
2016-02-09T01:08:26.900Z,8.89
2016-02-09T01:09:26.903Z,8.69
2016-02-09T01:10:26.734Z,8.79
2016-02-09T01:11:26.689Z,8.82
2016-02-09T01:12:26.661Z,8.88
2016-02-09T01:13:26.632Z,8.88
2016-02-09T01:14:26.527Z,8.88
2016-02-09T01:15:26.450Z,8.7
2016-02-09T01:16:26.406Z,8.64
2016-02-09T01:17:26.364Z,8.78
2016-02-09T01:18:26.287Z,8.76
2016-02-09T01:19:26.306Z,8.78
2016-02-09T01:20:26.136Z,8.82
2016-02-09T01:21:26.139Z,8.84
2016-02-09T01:22:26.111Z,8.91
2016-02-09T01:23:26.004Z,8.94
2016-02-09T01:24:25.928Z,8.89
2016-02-09T01:25:25.885Z,8.91
2016-02-09T01:26:25.855Z,8.85
2016-02-09T01:27:25.828Z,8.94
2016-02-09T01:28:25.721Z,8.92
2016-02-09T01:29:25.691Z,8.87
2016-02-09T01:30:25.650Z,8.91
2016-02-09T01:31:25.559Z,8.91
2016-02-09T01:32:25.499Z,8.92
2016-02-09T01:33:25.439Z,8.91
2016-02-09T01:34:25.395Z,8.89
2016-02-09T01:35:25.367Z,8.94
2016-02-09T01:36:25.307Z,8.91
2016-02-09T01:37:25.247Z,9.02
2016-02-09T01:38:25.203Z,8.95
2016-02-09T01:39:25.129Z,8.94
2016-02-09T01:40:25.053Z,9.02
2016-02-09T01:41:25.040Z,9.02
2016-02-09T01:42:24.979Z,8.95
2016-02-09T01:43:24.920Z,8.95
2016-02-09T01:44:24.846Z,8.94
2016-02-09T01:45:24.802Z,8.91
2016-02-09T01:46:24.742Z,8.88
2016-02-09T01:47:24.714Z,8.87
2016-02-09T01:48:24.623Z,8.81
2016-02-09T01:49:24.580Z,8.79
2016-02-09T01:50:24.519Z,8.79
2016-02-09T01:51:24.505Z,8.78
2016-02-09T01:52:24.433Z,8.74
2016-02-09T01:53:24.406Z,8.64
2016-02-09T01:54:24.345Z,8.64
2016-02-09T01:55:24.214Z,8.52
2016-02-09T01:56:24.184Z,8.51
2016-02-09T01:57:24.140Z,8.52
2016-02-09T01:58:24.065Z,8.45
2016-02-09T01:59:24.036Z,8.49
2016-02-09T02:00:23.979Z,8.52
2016-02-09T02:01:23.903Z,8.56
2016-02-09T02:02:23.874Z,8.52
2016-02-09T02:03:23.815Z,8.51
2016-02-09T02:04:23.771Z,8.49
2016-02-09T02:05:23.680Z,8.45
2016-02-09T02:06:23.635Z,8.37
2016-02-09T02:07:23.591Z,8.51
2016-02-09T02:08:23.516Z,8.55
2016-02-09T02:09:23.471Z,8.51
2016-02-09T02:10:23.443Z,8.48
2016-02-09T02:11:23.352Z,8.48
2016-02-09T02:12:23.323Z,8.45
2016-02-09T02:13:23.233Z,8.37
2016-02-09T02:14:23.205Z,8.42
2016-02-09T02:15:23.193Z,8.46
2016-02-09T02:16:23.086Z,8.46
2016-02-09T02:17:23.073Z,8.42
2016-02-09T02:18:22.982Z,8.49
2016-02-09T02:19:22.942Z,8.48
2016-02-09T02:20:22.851Z,8.52
2016-02-09T02:21:22.823Z,8.55
2016-02-09T02:22:22.748Z,8.55
2016-02-09T02:23:22.719Z,8.53
2016-02-09T02:24:22.637Z,8.46
2016-02-09T02:25:22.564Z,8.53
2016-02-09T02:26:22.505Z,8.58
2016-02-09T02:27:22.541Z,8.52
2016-02-09T02:28:22.480Z,8.51
2016-02-09T02:29:22.343Z,8.52
2016-02-09T02:30:22.361Z,8.56
2016-02-09T02:31:22.239Z,8.49
2016-02-09T02:32:22.196Z,8.48
2016-02-09T02:33:22.167Z,8.41
2016-02-09T02:34:22.169Z,8.55
2016-02-09T02:35:22.015Z,8.63
2016-02-09T02:36:22.034Z,8.63
2016-02-09T02:37:21.943Z,8.6
2016-02-09T02:38:21.867Z,8.63
2016-02-09T02:39:21.823Z,8.58
2016-02-09T02:40:21.763Z,8.53
2016-02-09T02:41:21.705Z,8.6
2016-02-09T02:42:21.661Z,8.64
2016-02-09T02:43:21.586Z,8.49
2016-02-09T02:44:21.557Z,8.51
2016-02-09T02:45:21.481Z,8.58
2016-02-09T02:46:21.422Z,8.6
2016-02-09T02:47:21.409Z,8.58
2016-02-09T02:48:21.380Z,8.58
2016-02-09T02:49:21.307Z,8.63
2016-02-09T02:50:21.216Z,8.53
2016-02-09T02:51:21.156Z,8.53
2016-02-09T02:52:21.112Z,8.58
2016-02-09T02:53:21.054Z,8.55
2016-02-09T02:54:20.994Z,8.58
2016-02-09T02:55:20.935Z,8.63
2016-02-09T02:56:20.890Z,8.58
2016-02-09T02:57:20.846Z,8.44
2016-02-09T02:58:20.770Z,8.53
2016-02-09T02:59:20.711Z,8.51
2016-02-09T03:00:20.573Z,8.51
2016-02-09T03:01:20.592Z,8.53
2016-02-09T03:02:20.625Z,8.6
2016-02-09T03:03:20.489Z,8.49
2016-02-09T03:04:20.414Z,8.56
2016-02-09T03:05:20.386Z,8.53
2016-02-09T03:06:20.341Z,8.49
2016-02-09T03:07:20.297Z,8.44
2016-02-09T03:08:20.206Z,8.52
2016-02-09T03:09:20.193Z,8.55
2016-02-09T03:10:20.118Z,8.56
2016-02-09T03:11:20.074Z,8.6
2016-02-09T03:12:20.030Z,8.33
2016-02-09T03:13:20.002Z,8.42
2016-02-09T03:14:19.911Z,8.44
2016-02-09T03:15:19.851Z,8.31
2016-02-09T03:16:19.745Z,8.41
2016-02-09T03:17:19.733Z,8.44
2016-02-09T03:18:19.720Z,8.44
2016-02-09T03:19:19.722Z,8.41
2016-02-09T03:20:19.585Z,8.44
2016-02-09T03:21:19.526Z,8.38
2016-02-09T03:22:19.656Z,8.44
2016-02-09T03:23:19.377Z,8.44
2016-02-09T03:24:19.395Z,8.41
2016-02-09T03:25:19.290Z,8.44
2016-02-09T03:26:19.199Z,8.41
2016-02-09T03:27:19.186Z,8.46
2016-02-09T03:28:19.127Z,8.41
2016-02-09T03:29:19.035Z,8.44
2016-02-09T03:30:19.069Z,8.41
2016-02-09T03:31:19.040Z,8.44
2016-02-09T03:32:18.981Z,8.44
2016-02-09T03:33:18.905Z,8.34
2016-02-09T03:34:18.815Z,8.52
2016-02-09T03:35:18.723Z,8.49
2016-02-09T03:36:18.663Z,8.41
2016-02-09T03:37:18.620Z,8.45
2016-02-09T03:38:18.545Z,8.46
2016-02-09T03:39:18.517Z,8.44
2016-02-09T03:40:18.504Z,8.44
2016-02-09T03:41:18.460Z,8.38
2016-02-09T03:42:18.384Z,8.42
2016-02-09T03:43:18.309Z,8.52
2016-02-09T03:44:18.234Z,8.51
2016-02-09T03:45:18.190Z,8.48
2016-02-09T03:46:18.146Z,8.45
2016-02-09T03:47:18.090Z,8.46
2016-02-09T03:48:18.027Z,8.48
2016-02-09T03:49:17.984Z,8.51
2016-02-09T03:50:17.879Z,8.52
2016-02-09T03:51:17.882Z,8.51
2016-02-09T03:52:17.823Z,8.51
2016-02-09T03:53:17.747Z,8.52
2016-02-09T03:54:17.749Z,8.53
2016-02-09T03:55:17.627Z,8.52
2016-02-09T03:56:17.598Z,8.51
2016-02-09T03:57:17.539Z,8.49
2016-02-09T03:58:17.495Z,8.52
2016-02-09T03:59:17.419Z,8.34
2016-02-09T04:00:17.347Z,8.51
2016-02-09T04:01:17.289Z,8.49
2016-02-09T04:02:17.244Z,8.45
2016-02-09T04:03:17.200Z,8.51
2016-02-09T04:04:17.202Z,8.51
2016-02-09T04:05:17.096Z,8.52
2016-02-09T04:06:17.020Z,8.53
2016-02-09T04:07:16.991Z,8.49
2016-02-09T04:08:16.981Z,8.49
2016-02-09T04:09:16.890Z,8.52
2016-02-09T04:10:16.831Z,8.53
2016-02-09T04:11:16.754Z,8.55
2016-02-09T04:12:16.742Z,8.53
2016-02-09T04:13:16.666Z,8.58
2016-02-09T04:14:16.610Z,8.6
2016-02-09T04:15:16.566Z,8.53
2016-02-09T04:16:16.521Z,8.51
2016-02-09T04:17:16.462Z,8.51
2016-02-09T04:18:16.402Z,8.55
2016-02-09T04:19:16.374Z,8.63
2016-02-09T04:20:16.298Z,8.36
2016-02-09T04:21:16.302Z,8.52
2016-02-09T04:22:16.196Z,8.51
2016-02-09T04:23:16.120Z,8.56
2016-02-09T04:24:16.076Z,8.56
2016-02-09T04:25:16.032Z,8.44
2016-02-09T04:26:15.988Z,8.51
2016-02-09T04:27:15.943Z,8.49
2016-02-09T04:28:15.885Z,8.53
2016-02-09T04:29:15.873Z,8.56
2016-02-09T04:30:15.735Z,8.56
2016-02-09T04:31:15.690Z,8.55
2016-02-09T04:32:15.646Z,8.64
2016-02-09T04:33:15.618Z,8.69
2016-02-09T04:34:15.574Z,8.61
2016-02-09T04:35:15.467Z,8.67
2016-02-09T04:36:15.440Z,8.69
2016-02-09T04:37:15.364Z,8.7
2016-02-09T04:38:15.367Z,8.67
2016-02-09T04:39:15.369Z,8.67
2016-02-09T04:40:15.482Z,8.67
2016-02-09T04:41:15.141Z,8.64
2016-02-09T04:42:15.143Z,8.61
2016-02-09T04:43:15.037Z,8.71
2016-02-09T04:44:14.977Z,8.64
2016-02-09T04:45:14.965Z,8.67
2016-02-09T04:46:14.889Z,8.73
2016-02-09T04:47:14.846Z,8.76
2016-02-09T04:48:14.816Z,8.63
2016-02-09T04:49:14.727Z,8.69
2016-02-09T04:50:14.683Z,8.67
2016-02-09T04:51:14.641Z,8.76
2016-02-09T04:52:14.566Z,8.64
2016-02-09T04:53:14.553Z,8.71
2016-02-09T04:54:14.555Z,8.73
2016-02-09T04:55:14.417Z,8.79
2016-02-09T04:56:14.373Z,8.76
2016-02-09T04:57:14.298Z,8.66
2016-02-09T04:58:14.270Z,8.73
2016-02-09T04:59:14.195Z,8.66
2016-02-09T05:00:14.198Z,8.61
2016-02-09T05:01:14.059Z,8.76
2016-02-09T05:02:14.000Z,8.63
2016-02-09T05:03:13.987Z,8.81
2016-02-09T05:04:14.054Z,8.6
2016-02-09T05:05:13.884Z,8.6
2016-02-09T05:06:13.809Z,8.7
2016-02-09T05:07:13.826Z,8.61
2016-02-09T05:08:13.689Z,8.61
2016-02-09T05:09:13.660Z,8.69
2016-02-09T05:10:13.742Z,8.55
2016-02-09T05:11:13.526Z,8.52
2016-02-09T05:12:13.357Z,8.53
2016-02-09T05:13:13.453Z,8.55
2016-02-09T05:14:13.394Z,8.49
2016-02-09T05:15:12.584Z,8.51
2016-02-09T05:16:13.289Z,8.48
2016-02-09T05:17:12.495Z,8.44
2016-02-09T05:18:13.170Z,8.46
2016-02-09T05:19:13.157Z,8.44
2016-02-09T05:20:13.081Z,8.46
2016-02-09T05:21:13.006Z,8.44
2016-02-09T05:22:12.949Z,8.42
2016-02-09T05:23:12.941Z,8.33
2016-02-09T05:24:12.849Z,8.27
2016-02-09T05:25:12.821Z,8.37
2016-02-09T05:26:12.745Z,8.28
2016-02-09T05:27:12.779Z,8.31
2016-02-09T05:28:12.626Z,8.31
2016-02-09T05:29:12.629Z,8.28
2016-02-09T05:30:12.534Z,8.28
2016-02-09T05:31:12.474Z,8.28
2016-02-09T05:32:12.461Z,8.33
2016-02-09T05:33:12.389Z,8.1
2016-02-09T05:34:12.312Z,8.19
2016-02-09T05:35:12.253Z,8.2
2016-02-09T05:36:12.349Z,8.15
2016-02-09T05:37:12.274Z,8.18
2016-02-09T05:38:12.214Z,8.15
2016-02-09T05:39:12.044Z,8.13
2016-02-09T05:40:12.000Z,8.18
2016-02-09T05:41:11.972Z,8.26
2016-02-09T05:42:11.897Z,8.19
2016-02-09T05:43:11.821Z,8.18
2016-02-09T05:44:11.808Z,8.16
2016-02-09T05:45:11.716Z,8.16
2016-02-09T05:46:11.673Z,8.01
2016-02-09T05:47:11.616Z,8.08
2016-02-09T05:48:11.555Z,8.13
2016-02-09T05:49:11.573Z,7.97
2016-02-09T05:50:11.420Z,8.12
2016-02-09T05:51:11.391Z,8.15
2016-02-09T05:52:11.348Z,8
2016-02-09T05:53:11.117Z,7.95
2016-02-09T05:54:11.214Z,8.1
2016-02-09T05:55:11.294Z,8
2016-02-09T05:56:11.203Z,8.09
2016-02-09T05:57:11.050Z,8.13
2016-02-09T05:58:11.006Z,8.08
2016-02-09T05:59:11.040Z,7.97
2016-02-09T06:00:10.871Z,8.06
2016-02-09T06:01:10.906Z,8.1
2016-02-09T06:02:10.752Z,8
2016-02-09T06:03:10.770Z,8
2016-02-09T06:04:10.695Z,8
2016-02-09T06:05:10.620Z,8.03
2016-02-09T06:06:10.778Z,8.03
2016-02-09T06:07:10.536Z,8.03
2016-02-09T06:08:10.444Z,8
2016-02-09T06:09:10.417Z,7.98
2016-02-09T06:10:10.389Z,8.08
2016-02-09T06:11:10.298Z,7.97
2016-02-09T06:12:10.238Z,8.1
2016-02-09T06:13:10.194Z,8.01
2016-02-09T06:14:10.182Z,8.13
2016-02-09T06:15:10.091Z,8.05
2016-02-09T06:16:10.032Z,8.01
2016-02-09T06:17:10.008Z,8
2016-02-09T06:18:09.902Z,8.01
2016-02-09T06:19:09.906Z,8.08
2016-02-09T06:20:09.830Z,7.98
2016-02-09T06:21:10.035Z,8.09
2016-02-09T06:22:09.702Z,8
2016-02-09T06:23:09.690Z,7.95
2016-02-09T06:24:09.552Z,8.12
2016-02-09T06:25:09.554Z,7.98
2016-02-09T06:26:09.494Z,7.98
2016-02-09T06:27:09.423Z,7.98
2016-02-09T06:28:09.364Z,7.98
2016-02-09T06:29:09.320Z,7.98
2016-02-09T06:30:09.292Z,8.08
2016-02-09T06:31:09.280Z,8.1
2016-02-09T06:32:09.173Z,7.98
2016-02-09T06:33:09.130Z,8.08
2016-02-09T06:34:09.054Z,8.1
2016-02-09T06:35:08.963Z,8.06
2016-02-09T06:36:09.045Z,8.05
2016-02-09T06:37:08.907Z,7.98
2016-02-09T06:38:08.800Z,8.01
2016-02-09T06:39:08.786Z,8.01
2016-02-09T06:40:08.712Z,8.1
2016-02-09T06:41:08.667Z,8.06
2016-02-09T06:42:08.623Z,8.08
2016-02-09T06:43:08.548Z,8.06
2016-02-09T06:44:08.473Z,8.09
2016-02-09T06:45:08.460Z,8.06
2016-02-09T06:46:08.385Z,8
2016-02-09T06:47:08.356Z,8.12
2016-02-09T06:48:08.297Z,8.09
2016-02-09T06:49:08.221Z,8.09
2016-02-09T06:50:08.164Z,8.08
2016-02-09T06:51:08.152Z,8.03
2016-02-09T06:52:07.920Z,8.12
2016-02-09T06:53:08.021Z,8.03
2016-02-09T06:54:07.977Z,8.12
2016-02-09T06:55:07.917Z,8.12
2016-02-09T06:56:07.920Z,8.08
2016-02-09T06:57:07.892Z,7.9
2016-02-09T06:58:07.928Z,8
2016-02-09T06:59:07.883Z,8.15
2016-02-09T07:00:07.622Z,8.06
2016-02-09T07:01:07.545Z,7.97
2016-02-09T07:02:07.564Z,8.08
2016-02-09T07:03:07.504Z,8.13
2016-02-09T07:04:07.225Z,7.98
2016-02-09T07:05:07.375Z,8.06
2016-02-09T07:06:07.314Z,8.09
2016-02-09T07:07:07.521Z,8.03
2016-02-09T07:08:07.227Z,8.08
2016-02-09T07:09:07.151Z,8.06
2016-02-09T07:10:07.138Z,8.12
2016-02-09T07:11:07.063Z,8.1
2016-02-09T07:12:06.990Z,8.06
2016-02-09T07:13:06.963Z,8.16
2016-02-09T07:14:06.903Z,8.16
2016-02-09T07:15:06.858Z,8.13
2016-02-09T07:16:06.815Z,8.18
2016-02-09T07:17:06.708Z,8.23
2016-02-09T07:18:06.664Z,8.26
2016-02-09T07:19:05.854Z,8.27
2016-02-09T07:20:06.653Z,8.19
2016-02-09T07:21:06.500Z,8.2
2016-02-09T07:22:06.581Z,8.23
2016-02-09T07:23:06.442Z,8.2
2016-02-09T07:24:06.320Z,8.24
2016-02-09T07:25:06.359Z,8.28
2016-02-09T07:26:06.205Z,8.24
2016-02-09T07:27:06.239Z,8.2
2016-02-09T07:28:06.133Z,8.26
2016-02-09T07:29:06.073Z,8.19
2016-02-09T07:30:06.169Z,8.33
2016-02-09T07:31:06.110Z,8.27
2016-02-09T07:32:05.956Z,8.3
2016-02-09T07:33:05.865Z,8.3
2016-02-09T07:34:05.822Z,8.28
2016-02-09T07:35:05.825Z,8.3
2016-02-09T07:36:05.905Z,8.3
2016-02-09T07:37:05.814Z,8.41
2016-02-09T07:38:05.599Z,8.34
2016-02-09T07:39:05.617Z,8.38
2016-02-09T07:40:05.495Z,8.41
2016-02-09T07:41:05.247Z,8.38
2016-02-09T07:42:05.345Z,8.33
2016-02-09T07:43:05.317Z,8.37
2016-02-09T07:44:05.242Z,8.28
2016-02-09T07:45:05.400Z,8.45
2016-02-09T07:46:05.137Z,8.38
2016-02-09T07:47:05.159Z,8.41
2016-02-09T07:48:05.067Z,8.41
2016-02-09T07:49:05.024Z,8.44
2016-02-09T07:50:05.167Z,8.44
2016-02-09T07:51:04.887Z,8.28
2016-02-09T07:52:04.828Z,8.28
2016-02-09T07:55:56.108Z,8.38
2016-02-09T07:56:27.780Z,8.38
2016-02-09T07:57:27.751Z,8.28
2016-02-09T07:58:27.708Z,8.45
2016-02-09T07:59:27.616Z,8.42
2016-02-09T08:00:27.572Z,8.33
2016-02-09T08:01:27.546Z,8.44
2016-02-09T08:02:27.501Z,8.41
2016-02-09T08:03:27.442Z,8.28
2016-02-09T08:04:27.367Z,8.27
2016-02-09T08:05:27.198Z,8.44
2016-02-09T08:06:27.310Z,8.41
2016-02-09T08:07:27.203Z,8.45
2016-02-09T08:08:27.175Z,8.45
2016-02-09T08:09:27.117Z,8.38
2016-02-09T08:10:27.041Z,8.38
2016-02-09T08:11:26.997Z,8.45
2016-02-09T08:12:26.922Z,8.41
2016-02-09T08:13:26.878Z,8.41
2016-02-09T08:14:26.837Z,8.45
2016-02-09T08:15:26.762Z,8.52
2016-02-09T08:16:26.702Z,8.52
2016-02-09T08:17:26.709Z,8.49
2016-02-09T08:18:26.711Z,8.49
2016-02-09T08:19:26.620Z,8.52
2016-02-09T08:20:26.499Z,8.52
2016-02-09T08:21:26.441Z,8.49
2016-02-09T08:22:26.007Z,8.55
2016-02-09T08:23:26.371Z,8.53
2016-02-09T08:24:26.295Z,8.49
2016-02-09T08:25:26.250Z,8.63
2016-02-09T08:26:26.285Z,8.6
2016-02-09T08:27:26.131Z,8.63
2016-02-09T08:28:26.243Z,8.63
2016-02-09T08:29:26.121Z,8.66
2016-02-09T08:30:25.983Z,8.76
2016-02-09T08:31:25.927Z,8.64
2016-02-09T08:32:25.899Z,8.61
2016-02-09T08:33:25.886Z,8.6
2016-02-09T08:34:25.810Z,8.53
2016-02-09T08:35:25.718Z,8.67
2016-02-09T08:36:25.660Z,8.67
2016-02-09T08:37:25.599Z,8.6
2016-02-09T08:38:25.508Z,8.51
2016-02-09T08:39:25.480Z,8.52
2016-02-09T08:40:25.418Z,8.51
2016-02-09T08:41:25.377Z,8.48
2016-02-09T08:42:25.304Z,8.37
2016-02-09T08:43:25.246Z,8.38
2016-02-09T08:44:25.159Z,8.44
2016-02-09T08:45:25.152Z,8.42
2016-02-09T08:46:25.041Z,8.44
2016-02-09T08:47:25.227Z,8.51
2016-02-09T08:48:25.021Z,8.52
2016-02-09T08:49:24.864Z,8.46
2016-02-09T08:50:24.817Z,8.49
2016-02-09T08:51:24.772Z,8.52
2016-02-09T08:52:23.928Z,8.53
2016-02-09T08:53:24.603Z,8.52
2016-02-09T08:54:24.588Z,8.55
2016-02-09T08:55:24.559Z,8.63
2016-02-09T08:56:24.389Z,8.73
2016-02-09T08:57:24.423Z,8.74
2016-02-09T08:58:24.383Z,8.66
2016-02-09T08:59:24.305Z,8.78
2016-02-09T09:00:24.324Z,8.84
2016-02-09T09:01:24.217Z,8.84
2016-02-09T09:02:24.156Z,8.85
2016-02-09T09:03:24.081Z,8.92
2016-02-09T09:04:24.067Z,8.99
2016-02-09T09:05:23.976Z,8.99
2016-02-09T09:06:23.947Z,9.22
2016-02-09T09:07:23.888Z,9.22
2016-02-09T09:08:23.797Z,9.28
2016-02-09T09:09:23.785Z,9.31
2016-02-09T09:10:23.741Z,9.36
2016-02-09T09:11:23.509Z,9.41
2016-02-09T09:12:23.605Z,9.58
2016-02-09T09:13:23.546Z,9.61
2016-02-09T09:14:23.534Z,9.68
2016-02-09T09:15:23.444Z,9.77
2016-02-09T09:16:23.368Z,9.82
2016-02-09T09:17:23.340Z,9.91
2016-02-09T09:18:23.302Z,9.89
2016-02-09T09:19:23.241Z,9.99
2016-02-09T09:20:23.200Z,10.05
2016-02-09T09:21:23.140Z,10.13
2016-02-09T09:22:23.066Z,10.35
2016-02-09T09:23:23.021Z,10.4
2016-02-09T09:24:22.976Z,10.42
2016-02-09T09:25:22.949Z,10.63
2016-02-09T09:26:22.857Z,10.72
2016-02-09T09:27:22.844Z,10.82
2016-02-09T09:28:22.753Z,11.02
2016-02-09T09:29:22.773Z,11.17
2016-02-09T09:30:22.682Z,11.25
2016-02-09T09:31:22.575Z,11.27
2016-02-09T09:32:22.578Z,11.37
2016-02-09T09:33:22.565Z,11.32
2016-02-09T09:34:22.459Z,11.41
2016-02-09T09:35:22.416Z,11.48
2016-02-09T09:36:22.403Z,11.48
2016-02-09T09:37:22.311Z,11.47
2016-02-09T09:38:22.268Z,11.4
2016-02-09T09:39:22.207Z,11.41
2016-02-09T09:40:22.194Z,11.45
2016-02-09T09:41:22.150Z,11.44
2016-02-09T09:42:22.091Z,11.54
2016-02-09T09:43:22.047Z,11.48
2016-02-09T09:44:21.987Z,11.54
2016-02-09T09:45:21.896Z,11.59
2016-02-09T09:46:21.868Z,11.59
2016-02-09T09:47:21.839Z,11.6
2016-02-09T09:48:21.759Z,11.5
2016-02-09T09:49:21.698Z,11.47
2016-02-09T09:50:21.700Z,11.51
2016-02-09T09:51:21.610Z,11.5
2016-02-09T09:52:21.534Z,11.57
2016-02-09T09:53:21.506Z,11.69
2016-02-09T09:54:21.524Z,11.63
2016-02-09T09:55:21.480Z,11.54
2016-02-09T09:56:21.359Z,11.59
2016-02-09T09:57:21.298Z,11.57
2016-02-09T09:58:21.209Z,11.55
2016-02-09T09:59:21.367Z,11.59
2016-02-09T10:00:21.134Z,11.6
2016-02-09T10:01:21.247Z,11.57
2016-02-09T10:02:21.047Z,11.54
2016-02-09T10:03:20.986Z,11.54
2016-02-09T10:04:20.942Z,11.47
2016-02-09T10:05:21.102Z,11.44
2016-02-09T10:06:20.855Z,11.45
2016-02-09T10:07:20.794Z,11.43
2016-02-09T10:08:20.750Z,11.41
2016-02-09T10:09:20.784Z,11.45
2016-02-09T10:10:20.896Z,11.43
2016-02-09T10:11:20.571Z,11.37
2016-02-09T10:12:20.496Z,11.45
2016-02-09T10:13:20.732Z,11.35
2016-02-09T10:14:20.626Z,11.4
2016-02-09T10:15:20.378Z,11.36
2016-02-09T10:16:20.335Z,11.29
2016-02-09T10:17:20.274Z,11.25
2016-02-09T10:18:20.215Z,11.29
2016-02-09T10:19:20.315Z,11.26
2016-02-09T10:20:20.147Z,11.23
2016-02-09T10:21:19.930Z,11.23
2016-02-09T10:22:20.197Z,11.23
2016-02-09T10:23:19.982Z,11.08
2016-02-09T10:24:20.172Z,11.12
2016-02-09T10:25:19.878Z,11.19
2016-02-09T10:26:20.271Z,11.23
2016-02-09T10:27:19.758Z,11.23
2016-02-09T10:28:19.714Z,11.23
2016-02-09T10:29:19.673Z,11.19
2016-02-09T10:30:19.817Z,11.25
2016-02-09T10:31:20.008Z,11.23
2016-02-09T10:32:19.511Z,11.22
2016-02-09T10:33:19.481Z,11.23
2016-02-09T10:34:19.437Z,11.12
2016-02-09T10:35:19.362Z,11.12
2016-02-09T10:36:19.271Z,11.1
2016-02-09T10:37:19.242Z,11.08
2016-02-09T10:38:19.261Z,11.18
2016-02-09T10:39:19.217Z,11.25
2016-02-09T10:40:19.078Z,11.22
2016-02-09T10:41:19.049Z,11.23
2016-02-09T10:42:18.866Z,11.19
2016-02-09T10:43:18.180Z,11.26
2016-02-09T10:44:18.932Z,11.19
2016-02-09T10:45:18.923Z,11.29
2016-02-09T10:46:18.784Z,11.35
2016-02-09T10:47:18.724Z,11.32
2016-02-09T10:48:18.696Z,11.37
2016-02-09T10:49:18.776Z,11.45
2016-02-09T10:50:18.670Z,11.37
2016-02-09T10:51:18.527Z,11.44
2016-02-09T10:52:18.498Z,11.47
2016-02-09T10:53:18.423Z,11.54
2016-02-09T10:54:18.379Z,11.54
2016-02-09T10:55:18.397Z,11.55
2016-02-09T10:56:18.259Z,11.44
2016-02-09T10:57:18.278Z,11.5
2016-02-09T10:58:18.170Z,11.5
2016-02-09T10:59:18.142Z,11.54
2016-02-09T11:00:18.067Z,11.5
2016-02-09T11:01:18.039Z,11.57
2016-02-09T11:02:17.979Z,11.69
2016-02-09T11:03:17.904Z,11.69
2016-02-09T11:04:17.876Z,11.86
2016-02-09T11:05:17.862Z,11.87
2016-02-09T11:06:17.740Z,12.1
2016-02-09T11:07:17.696Z,12.15
2016-02-09T11:08:17.652Z,12.04
2016-02-09T11:09:17.593Z,12.12
2016-02-09T11:10:17.583Z,12.1
2016-02-09T11:11:17.539Z,12.12
2016-02-09T11:12:17.464Z,12.06
2016-02-09T11:13:17.420Z,11.97
2016-02-09T11:14:17.407Z,11.88
2016-02-09T11:15:17.301Z,11.84
2016-02-09T11:16:17.397Z,11.88
2016-02-09T11:17:17.165Z,11.94
2016-02-09T11:18:17.156Z,11.9
2016-02-09T11:19:17.111Z,11.97
2016-02-09T11:20:17.052Z,11.86
2016-02-09T11:21:17.009Z,11.86
2016-02-09T11:22:16.966Z,11.83
2016-02-09T11:23:16.953Z,11.8
2016-02-09T11:24:16.908Z,11.81
2016-02-09T11:25:16.819Z,11.88
2016-02-09T11:26:16.758Z,11.88
2016-02-09T11:27:16.699Z,11.94
2016-02-09T11:28:16.732Z,11.95
2016-02-09T11:29:16.612Z,11.9
2016-02-09T11:30:16.786Z,11.77
2016-02-09T11:31:16.524Z,11.83
2016-02-09T11:32:16.464Z,11.83
2016-02-09T11:33:16.435Z,11.75
2016-02-09T11:34:16.359Z,11.78
2016-02-09T11:35:16.487Z,11.83
2016-02-09T11:36:16.318Z,11.9
2016-02-09T11:37:16.117Z,11.94
2016-02-09T11:38:16.169Z,12.07
2016-02-09T11:39:16.094Z,12.12
2016-02-09T11:40:16.237Z,12.12
2016-02-09T11:41:16.005Z,12.22
2016-02-09T11:42:15.961Z,12.37
2016-02-09T11:43:15.933Z,12.36
2016-02-09T11:44:15.873Z,12.43
2016-02-09T11:45:15.875Z,12.31
2016-02-09T11:46:15.772Z,12.37
2016-02-09T11:47:16.008Z,12.37
2016-02-09T11:48:15.683Z,12.27
2016-02-09T11:49:15.624Z,12.24
2016-02-09T11:50:15.610Z,12.25
2016-02-09T11:51:15.510Z,12.28
2016-02-09T11:52:15.466Z,12.2
2016-02-09T11:53:15.438Z,12.28
2016-02-09T11:54:15.350Z,12.31
2016-02-09T11:55:15.290Z,12.22
2016-02-09T11:56:15.293Z,12.17
2016-02-09T11:57:15.186Z,12.25
2016-02-09T11:58:15.158Z,12.25
2016-02-09T11:59:15.161Z,12.32
2016-02-09T12:00:15.070Z,12.27
2016-02-09T12:01:14.994Z,12.25
2016-02-09T12:02:14.984Z,12.27
2016-02-09T12:03:14.924Z,12.2
2016-02-09T12:04:14.755Z,12.28
2016-02-09T12:05:14.826Z,12.2
2016-02-09T12:06:14.813Z,12.28
2016-02-09T12:07:14.676Z,12.21
2016-02-09T12:08:14.662Z,12.24
2016-02-09T12:09:14.634Z,12.25
2016-02-09T12:10:14.527Z,12.28
2016-02-09T12:11:14.517Z,12.2
2016-02-09T12:12:14.442Z,12.27
2016-02-09T12:13:14.367Z,12.21
2016-02-09T12:14:14.525Z,12.27
2016-02-09T12:15:14.700Z,12.2
2016-02-09T12:16:14.250Z,12.28
2016-02-09T12:17:14.284Z,12.2
2016-02-09T12:18:14.145Z,12.28
2016-02-09T12:19:14.086Z,12.25
2016-02-09T12:20:14.089Z,12.28
2016-02-09T12:21:14.065Z,12.27
2016-02-09T12:22:14.179Z,12.25
2016-02-09T12:23:13.899Z,12.18
2016-02-09T12:24:13.840Z,12.1
2016-02-09T12:25:13.904Z,12.2
2016-02-09T12:26:13.751Z,12.13
2016-02-09T12:27:13.523Z,12.2
2016-02-09T12:28:13.712Z,12.24
2016-02-09T12:29:13.606Z,12.22
2016-02-09T12:30:13.566Z,12.15
2016-02-09T12:31:13.505Z,12.25
2016-02-09T12:32:13.477Z,12.18
2016-02-09T12:33:13.544Z,12.28
2016-02-09T12:34:13.389Z,12.18
2016-02-09T12:35:13.313Z,12.24
2016-02-09T12:36:13.270Z,12.29
2016-02-09T12:37:13.194Z,12.25
2016-02-09T12:38:13.119Z,12.29
2016-02-09T12:39:13.105Z,12.21
2016-02-09T12:40:13.390Z,12.1
2016-02-09T12:41:12.986Z,12.2
2016-02-09T12:42:12.942Z,12.25
2016-02-09T12:43:12.726Z,12.29
2016-02-09T12:44:12.838Z,12.2
2016-02-09T12:45:12.841Z,12.15
2016-02-09T12:46:12.766Z,12.22
2016-02-09T12:47:12.752Z,12.25
2016-02-09T12:48:12.646Z,12.22
2016-02-09T12:49:12.602Z,12.27
2016-02-09T12:50:13.012Z,12.32
2016-02-09T12:51:12.500Z,12.27
2016-02-09T12:52:12.502Z,12.35
2016-02-09T12:53:12.427Z,12.22
2016-02-09T12:54:12.352Z,12.37
2016-02-09T12:55:12.340Z,12.39
2016-02-09T12:56:12.326Z,12.37
2016-02-09T12:57:12.251Z,12.28
2016-02-09T12:58:12.144Z,12.36
2016-02-09T12:59:12.147Z,12.25
2016-02-09T13:00:12.290Z,12.36
2016-02-09T13:01:12.152Z,12.36
2016-02-09T13:02:11.983Z,12.4
2016-02-09T13:04:11.849Z,12.37
2016-02-09T13:05:12.007Z,12.42
2016-02-09T13:06:11.742Z,12.42
2016-02-09T13:07:11.760Z,12.45
2016-02-09T13:08:11.685Z,12.45
2016-02-09T13:09:11.640Z,12.45
2016-02-09T13:10:11.581Z,12.47
2016-02-09T13:11:11.537Z,12.45
2016-02-09T13:12:11.539Z,12.54
2016-02-09T13:13:11.417Z,12.4
2016-02-09T13:14:11.373Z,12.45
2016-02-09T13:15:11.328Z,12.5
2016-02-09T13:16:11.253Z,12.5